• Join FlightAware (Why Join?)
  • Login
  • US Flag 
Rudolph Flight #1: Arrived! 
03:15AM EST


 

Airport Tracker/Info


-or-


 

Live Flight TrackerFlight Track Log ✈ PDT4226 ✈ 30-Jan-2014 ✈ KBGM - KPHL

Flight Track Log - Related Links

Times and Time Zones

All times are in EST time to prevent confusion due to time zone crossing. See the PDT4226 flight status page for this flight to view local times or setup timezone preferences in your user account.

Time Position Orientation Groundspeed Altitude Reporting Facility
EST Latitude Longitude Course Direction KTS MPH feet Rate Location/Type
01:47PM 42.0250 -75.9196 180° South  Level Estimated
01:48PM 41.9791 -75.9046 180° South  Level Estimated
01:49PM 41.9321 -75.9106 185° South  Level FlightAware Approximate
01:50PM 41.8852 -75.9164 185° South  Level FlightAware Approximate
01:51PM 41.8382 -75.9223 185° South  Level FlightAware Approximate
01:52PM 41.7912 -75.9282 185° South  Level FlightAware Approximate
01:53PM 41.7457 -75.9114 154° Southeast  Level Estimated
01:54PM 41.7002 -75.8946 160° South  Level Estimated
01:55PM 41.6551 -75.8758 163° South  Level FlightAware Approximate
01:56PM 41.6096 -75.8591 159° South  Level Estimated
01:57PM 41.5658 -75.8355 158° South  Level FlightAware Approximate
01:58PM 41.5221 -75.8119 158° South  Level FlightAware Approximate
01:59PM 41.4765 -75.7957 153° Southeast  Level Estimated
02:00PM 41.4309 -75.7795 161° South  Level Estimated
02:01PM 41.3877 -75.7542 156° South  Level FlightAware Approximate
02:02PM 41.3445 -75.7289 156° South  Level FlightAware Approximate
02:03PM 41.3013 -75.7036 156° South  Level FlightAware Approximate
02:04PM 41.2555 -75.6884 162° South  Level Estimated
02:05PM 41.2111 -75.6672 160° South  Level FlightAware Approximate
02:06PM 41.1667 -75.6460 160° South  Level FlightAware Approximate
02:07PM 41.1222 -75.6248 160° South  Level FlightAware Approximate
02:08PM 41.0778 -75.6036 160° South  Level FlightAware Approximate
02:09PM 41.0334 -75.5825 160° South  Level FlightAware Approximate
02:10PM 40.9874 -75.5687 159° South  Level Estimated
02:11PM 40.9413 -75.5550 163° South  Level Estimated
02:12PM 40.8969 -75.5341 160° South  Level FlightAware Approximate
02:13PM 40.8524 -75.5133 161° South  Level FlightAware Approximate
02:14PM 40.8079 -75.4925 161° South  Level FlightAware Approximate
02:15PM 40.7634 -75.4718 161° South  Level FlightAware Approximate
02:16PM 40.7171 -75.4596 190° South  Level Estimated
02:16PM 40.6833 -75.4667 200° South 164 189 5,000  Level Philadelphia TRACON
02:17PM 40.6703 -75.4683 188° South  Level FlightAware Approximate
02:18PM 40.6236 -75.4770 188° South  Level FlightAware Approximate
02:18PM 40.6167 -75.4833 191° South 166 191 5,000  Level Philadelphia TRACON
02:19PM 40.5769 -75.4857 188° South  Level FlightAware Approximate
02:19PM 40.5833 -75.4833 180° South 170 196 5,000  Level Philadelphia TRACON
02:20PM 40.5302 -75.4944 188° South  Level FlightAware Approximate
02:20PM 40.5333 -75.4833 180° South 185 213 5,000  Level Philadelphia TRACON
02:21PM 40.4849 -75.4768 187° South  Level Estimated
02:21PM 40.4833 -75.4333 143° Southeast 184 212 5,000  Level Philadelphia TRACON
02:22PM 40.4405 -75.4977 200° South  Level FlightAware Approximate
02:22PM 40.4500 -75.4000 143° Southeast 185 213 5,000  Level Philadelphia TRACON
02:23PM 40.4000 -75.3667 153° Southeast 179 206 5,000  Level Philadelphia TRACON
02:24PM 40.3500 -75.3333 153° Southeast 176 203 5,000  Level Philadelphia TRACON
02:25PM 40.3167 -75.3167 159° South 177 204 5,000  Level Philadelphia TRACON
02:26PM 40.2667 -75.3000 166° South 176 203 5,000  Level Philadelphia TRACON
02:27PM 40.2167 -75.2833 166° South 180 207 5,000  Level Philadelphia TRACON
02:28PM 40.1833 -75.2667 159° South 178 205 5,000 -60 Level Philadelphia TRACON
02:29PM 40.1333 -75.2333 153° Southeast 178 205 4,900 -480 Descending Philadelphia TRACON
02:30PM 40.0667 -75.2167 169° South 177 204 4,000 -480 Descending Philadelphia TRACON
02:31PM 40.0333 -75.2000 159° South 167 192 4,000  Level Philadelphia TRACON
02:32PM 39.9833 -75.1833 166° South 167 192 4,000  Level Philadelphia TRACON
02:33PM 39.9500 -75.1667 159° South 166 191 4,000  Level Philadelphia TRACON
02:34PM 39.9000 -75.1500 166° South 168 193 4,000  Level Philadelphia TRACON
02:35PM 39.8667 -75.1167 142° Southeast 170 196 4,000  Level Philadelphia TRACON
02:36PM 39.8167 -75.1000 166° South 169 194 4,000 -300 Level Philadelphia TRACON
02:37PM 39.7667 -75.0833 166° South 169 194 3,500 -780 Descending Philadelphia TRACON
02:38PM 39.7333 -75.1167 218° Southwest 176 203 2,400 -900 Descending Philadelphia TRACON
02:39PM 39.7667 -75.1667 311° West 170 196 1,700 -600 Descending Philadelphia TRACON
02:40PM 39.8167 -75.2000 333° Northwest 160 184 1,200 -600 Descending Philadelphia TRACON
02:41PM 39.8500 -75.2167 339° North 127 146 500 -720 Descending Philadelphia TRACON